Time;durP1;ratioP1;P1;durP2;ratioP2;P2;SDS_P1;SDS_P2;PMS_P1;PMS_P2;Temp;Humidity;BMP_temperature;BMP_pressure;BME280_temperature;BME280_humidity;BME280_pressure;Samples;Min_cycle;Max_cycle;Signal;HPM_P1;HPM_P2
2022/01/10 00:02:18;;;;;;;60.03;20.88;;;;;;;-4.29;100.00;98146.41;4383856;32;20096;-75
2022/01/10 00:04:44;;;;;;;65.00;22.00;;;;;;;-4.32;100.00;98146.78;4385188;32;20100;-74
2022/01/10 00:07:11;;;;;;;58.95;18.12;;;;;;;-4.34;100.00;98154.03;4386190;32;20143;-74
2022/01/10 00:09:37;;;;;;;59.30;20.25;;;;;;;-4.34;100.00;98146.12;4385807;32;20069;-74
2022/01/10 00:12:04;;;;;;;60.67;18.12;;;;;;;-4.32;100.00;98157.28;4372582;32;20039;-75
2022/01/10 00:14:31;;;;;;;59.75;22.48;;;;;;;-4.31;100.00;98158.94;4383477;32;20393;-78
2022/01/10 00:16:57;;;;;;;74.20;21.52;;;;;;;-4.44;100.00;98155.06;4373576;32;20426;-74
2022/01/10 00:19:24;;;;;;;67.70;20.40;;;;;;;-4.44;100.00;98159.50;4370487;32;20361;-74
2022/01/10 00:21:51;;;;;;;54.55;19.70;;;;;;;-4.49;100.00;98139.00;4371939;32;20369;-74
2022/01/10 00:24:17;;;;;;;73.15;21.42;;;;;;;-4.36;100.00;98153.38;4370303;32;20044;-74
2022/01/10 00:26:44;;;;;;;63.00;20.90;;;;;;;-4.58;100.00;98126.91;4370143;32;20377;-80
2022/01/10 00:29:10;;;;;;;55.47;21.15;;;;;;;-4.36;100.00;98167.34;4384599;32;20043;-74
2022/01/10 00:31:37;;;;;;;55.35;18.67;;;;;;;-4.65;100.00;98126.00;4385701;32;20118;-74
2022/01/10 00:34:04;;;;;;;53.05;20.30;;;;;;;-4.45;100.00;98161.34;4385764;32;20081;-73
2022/01/10 00:36:30;;;;;;;54.45;20.20;;;;;;;-4.60;100.00;98140.22;4370846;32;20031;-74
2022/01/10 00:38:57;;;;;;;57.55;20.62;;;;;;;-4.60;100.00;98149.94;4382628;32;20429;-75
2022/01/10 00:41:24;;;;;;;60.20;19.52;;;;;;;-4.62;100.00;98152.72;4385588;32;20864;-74
2022/01/10 00:43:51;;;;;;;53.28;18.17;;;;;;;-4.64;100.00;98154.72;4385775;32;20051;-74
2022/01/10 00:46:18;;;;;;;65.18;19.62;;;;;;;-4.46;100.00;98193.84;4384610;32;20077;-74
2022/01/10 00:48:45;;;;;;;61.20;21.77;;;;;;;-4.40;100.00;98208.94;4385326;32;20076;-74
2022/01/10 00:51:12;;;;;;;57.33;20.73;;;;;;;-4.46;100.00;98201.72;4383883;32;20145;-75
2022/01/10 00:53:39;;;;;;;63.42;20.12;;;;;;;-4.67;100.00;98159.50;4384447;32;20073;-73
2022/01/10 00:56:08;;;;;;;63.85;20.62;;;;;;;-4.66;100.00;98155.87;4371816;32;20072;-73
2022/01/10 00:58:36;;;;;;;54.75;20.95;;;;;;;-4.32;100.00;98220.38;4385673;32;20109;-74
2022/01/10 01:01:04;;;;;;;61.37;19.58;;;;;;;-4.36;100.00;98208.56;4377665;32;20077;-80
2022/01/10 01:03:32;;;;;;;58.13;19.45;;;;;;;-4.30;100.00;98224.47;4384113;32;20039;-73
2022/01/10 01:05:59;;;;;;;57.67;20.50;;;;;;;-4.43;100.00;98209.28;4385120;32;20051;-74
2022/01/10 01:08:28;;;;;;;51.42;19.77;;;;;;;-4.37;100.00;98223.53;4372622;32;20065;-74
2022/01/10 01:13:49;;;;;;;61.83;21.35;;;;;;;-4.67;100.00;98191.03;4385629;32;20316;-73
2022/01/10 01:16:41;;;;;;;53.15;20.40;;;;;;;-4.43;100.00;98230.28;4387102;32;20047;-74
2022/01/10 01:24:20;;;;;;;53.67;19.17;;;;;;;-4.68;100.00;98195.44;4387459;32;20084;-80
2022/01/10 01:26:49;;;;;;;61.85;20.75;;;;;;;-4.36;100.00;98234.88;4388659;32;20077;-74
2022/01/10 01:29:21;;;;;;;57.03;20.37;;;;;;;-4.33;100.00;98237.16;4388731;32;20065;-73
2022/01/10 01:31:49;;;;;;;63.25;19.58;;;;;;;-4.33;100.00;98245.84;4374056;32;20393;-74
2022/01/10 01:34:17;;;;;;;50.03;18.73;;;;;;;-4.36;100.00;98235.66;4372144;32;20051;-81
2022/01/10 01:36:47;;;;;;;60.22;20.88;;;;;;;-4.34;100.00;98243.38;4373646;32;20077;-74
2022/01/10 01:39:22;;;;;;;64.75;22.17;;;;;;;-4.42;100.00;98245.09;4373707;32;20069;-74
2022/01/10 01:41:54;;;;;;;67.80;23.58;;;;;;;-4.43;100.00;98246.06;4370948;32;20050;-81
2022/01/10 01:44:21;;;;;;;69.00;21.10;;;;;;;-4.44;100.00;98249.66;4386165;32;21093;-74
2022/01/10 01:46:48;;;;;;;59.35;19.30;;;;;;;-4.40;100.00;98247.53;4374328;32;20051;-74
2022/01/10 01:49:14;;;;;;;55.97;18.77;;;;;;;-4.48;100.00;98243.13;4387681;32;20048;-74
2022/01/10 01:51:42;;;;;;;57.65;20.83;;;;;;;-4.49;100.00;98246.75;4387918;32;20078;-74
2022/01/10 01:54:09;;;;;;;64.57;20.37;;;;;;;-4.55;100.00;98247.44;4386410;32;20031;-73
2022/01/10 01:56:38;;;;;;;51.53;20.77;;;;;;;-4.48;100.00;98252.81;4388554;32;20051;-74
2022/01/10 01:59:09;;;;;;;58.15;19.95;;;;;;;-5.05;100.00;98183.00;4388436;32;20361;-74
2022/01/10 02:01:36;;;;;;;57.05;18.67;;;;;;;-4.46;100.00;98272.69;4388382;32;20076;-74
2022/01/10 02:04:03;;;;;;;53.78;18.77;;;;;;;-4.50;100.00;98276.66;4383866;32;20054;-74
2022/01/10 02:06:37;;;;;;;51.13;16.25;;;;;;;-4.80;100.00;98234.44;4386556;32;20046;-74
2022/01/10 02:09:04;;;;;;;50.42;17.45;;;;;;;-4.82;100.00;98239.03;4387514;32;20349;-74
2022/01/10 02:11:30;;;;;;;52.10;19.12;;;;;;;-4.58;100.00;98292.44;4387048;32;20057;-81
2022/01/10 02:13:58;;;;;;;53.55;18.50;;;;;;;-4.59;100.00;98288.19;4372906;32;20043;-74
2022/01/10 02:16:34;;;;;;;51.95;19.80;;;;;;;-4.62;100.00;98289.34;4387164;32;20084;-74
2022/01/10 02:19:01;;;;;;;61.78;20.25;;;;;;;-4.71;100.00;98289.56;4372393;32;20068;-74
2022/01/10 02:21:28;;;;;;;51.85;19.35;;;;;;;-4.99;100.00;98240.09;4372390;32;20471;-74
2022/01/10 02:23:57;;;;;;;45.08;18.65;;;;;;;-4.65;100.00;98294.13;4370936;32;20068;-75
2022/01/10 02:26:24;;;;;;;50.10;16.60;;;;;;;-4.64;100.00;98301.00;4371850;32;20092;-74
2022/01/10 02:28:51;;;;;;;45.40;16.02;;;;;;;-4.65;100.00;98294.94;4372693;32;20039;-74
2022/01/10 02:31:18;;;;;;;47.75;16.15;;;;;;;-4.93;100.00;98255.13;4372346;32;20035;-74
2022/01/10 02:33:47;;;;;;;50.30;16.42;;;;;;;-4.72;100.00;98293.16;4382024;32;20435;-76
2022/01/10 02:36:22;;;;;;;47.95;17.50;;;;;;;-4.89;100.00;98263.53;4373367;32;20027;-74
2022/01/10 02:38:52;;;;;;;44.63;15.95;;;;;;;-4.59;100.00;98307.41;4373810;32;20064;-75
2022/01/10 02:41:25;;;;;;;54.13;17.33;;;;;;;-4.55;100.00;98313.12;4386179;32;20043;-73
2022/01/10 02:43:53;;;;;;;52.35;18.33;;;;;;;-4.51;100.00;98309.19;4373751;32;20070;-81
2022/01/10 02:46:20;;;;;;;46.35;16.58;;;;;;;-4.52;100.00;98315.41;4388339;32;20063;-73
2022/01/10 02:48:47;;;;;;;53.28;18.35;;;;;;;-4.54;100.00;98293.75;4388537;32;20035;-74
2022/01/10 02:51:14;;;;;;;51.90;17.23;;;;;;;-4.77;100.00;98265.59;4372638;32;20069;-74
2022/01/10 02:53:41;;;;;;;53.67;16.83;;;;;;;-4.49;100.00;98304.56;4385765;32;20065;-82
2022/01/10 02:56:07;;;;;;;43.08;16.67;;;;;;;-4.67;100.00;98285.59;4387112;32;20806;-74
2022/01/10 02:58:34;;;;;;;52.80;18.83;;;;;;;-4.72;100.00;98288.75;4386860;32;20200;-74
2022/01/10 03:01:02;;;;;;;46.47;16.60;;;;;;;-4.70;100.00;98292.00;4370673;32;20031;-74
2022/01/10 03:03:30;;;;;;;58.28;17.08;;;;;;;-4.65;100.00;98304.62;4381345;32;20051;-74
2022/01/10 03:05:58;;;;;;;47.22;17.90;;;;;;;-4.50;100.00;98334.47;4384479;32;20046;-77
2022/01/10 03:08:26;;;;;;;54.13;16.23;;;;;;;-4.76;100.00;98298.75;4386839;32;20459;-75
2022/01/10 03:10:54;;;;;;;48.85;18.60;;;;;;;-4.57;100.00;98338.75;4373089;32;20035;-73
2022/01/10 03:13:21;;;;;;;52.95;15.85;;;;;;;-4.85;100.00;98304.19;4373635;32;20431;-75
2022/01/10 03:15:48;;;;;;;55.47;18.58;;;;;;;-4.56;100.00;98350.91;4386262;32;20038;-73
2022/01/10 03:18:15;;;;;;;54.63;17.67;;;;;;;-4.56;100.00;98351.72;4371316;32;20413;-73
2022/01/10 03:20:41;;;;;;;49.05;17.30;;;;;;;-4.58;100.00;98347.63;4386683;32;20085;-73
2022/01/10 03:23:09;;;;;;;58.78;20.52;;;;;;;-4.79;100.00;98320.09;4385020;32;20046;-73
2022/01/10 03:25:36;;;;;;;51.28;18.50;;;;;;;-4.57;100.00;98365.03;4386249;32;20436;-74
2022/01/10 03:28:04;;;;;;;51.17;16.25;;;;;;;-4.51;100.00;98361.72;4384639;32;20090;-74
2022/01/10 03:30:31;;;;;;;52.38;20.08;;;;;;;-4.64;100.00;98353.53;4380788;32;20090;-74
2022/01/10 03:33:01;;;;;;;47.85;16.42;;;;;;;-4.56;100.00;98371.94;4377522;32;20075;-75
2022/01/10 03:35:28;;;;;;;50.33;18.55;;;;;;;-4.56;100.00;98382.44;4386196;32;20372;-74
2022/01/10 03:37:55;;;;;;;50.30;19.45;;;;;;;-4.89;100.00;98329.97;4383771;32;20069;-73
2022/01/10 03:40:23;;;;;;;49.00;18.37;;;;;;;-4.89;100.00;98355.44;4385201;32;20087;-74
2022/01/10 03:42:50;;;;;;;56.13;20.05;;;;;;;-4.85;100.00;98352.31;4386268;32;20065;-74
2022/01/10 03:45:17;;;;;;;51.15;16.40;;;;;;;-4.58;100.00;98403.62;4385657;32;20061;-74
2022/01/10 03:47:44;;;;;;;47.50;17.58;;;;;;;-4.57;100.00;98409.69;4384389;32;20396;-77
2022/01/10 03:50:11;;;;;;;53.22;16.17;;;;;;;-4.62;100.00;98399.69;4385415;32;20063;-74
2022/01/10 03:52:37;;;;;;;51.47;19.20;;;;;;;-4.60;100.00;98412.66;4386350;32;20143;-74
2022/01/10 03:55:04;;;;;;;59.10;19.12;;;;;;;-4.70;100.00;98402.34;4386032;32;20056;-74
2022/01/10 03:57:31;;;;;;;52.45;17.48;;;;;;;-4.92;100.00;98382.84;4372958;32;20073;-74
2022/01/10 03:59:59;;;;;;;45.15;17.50;;;;;;;-4.61;100.00;98421.50;4384755;32;20080;-74
2022/01/10 04:02:28;;;;;;;50.00;16.27;;;;;;;-4.63;100.00;98432.19;4386066;32;20051;-74
2022/01/10 04:04:55;;;;;;;67.47;19.77;;;;;;;-4.99;100.00;98395.00;4385826;32;20065;-73
2022/01/10 04:07:21;;;;;;;49.35;20.55;;;;;;;-4.87;100.00;98438.31;4386019;32;20046;-74
2022/01/10 04:09:48;;;;;;;65.37;18.98;;;;;;;-4.92;100.00;98443.22;4374036;32;20043;-80
2022/01/10 04:12:15;;;;;;;56.15;19.33;;;;;;;-5.14;100.00;98416.66;4379160;32;20105;-74
2022/01/10 04:14:42;;;;;;;54.90;19.62;;;;;;;-5.07;100.00;98444.88;4385890;32;20190;-74
2022/01/10 04:17:08;;;;;;;44.03;17.08;;;;;;;-5.15;100.00;98443.88;4385986;32;20035;-73
2022/01/10 04:19:35;;;;;;;58.65;20.95;;;;;;;-5.20;100.00;98453.22;4381075;32;20051;-73
2022/01/10 04:22:03;;;;;;;52.65;20.23;;;;;;;-5.24;100.00;98468.50;4370750;32;20057;-74
2022/01/10 04:24:30;;;;;;;51.75;19.02;;;;;;;-5.37;100.00;98447.16;4367902;32;20094;-74
2022/01/10 04:26:57;;;;;;;54.15;20.10;;;;;;;-5.31;100.00;98468.31;4382871;32;20105;-74
2022/01/10 04:29:24;;;;;;;65.65;21.85;;;;;;;-5.32;100.00;98473.72;4372814;32;20436;-74
2022/01/10 04:31:50;;;;;;;61.60;21.87;;;;;;;-5.32;100.00;98481.59;4370854;32;20039;-73
2022/01/10 04:34:17;;;;;;;65.20;22.30;;;;;;;-5.60;100.00;98447.78;4375847;32;20069;-80
2022/01/10 04:36:44;;;;;;;64.40;21.75;;;;;;;-5.38;100.00;98492.75;4383810;32;20040;-73
2022/01/10 04:39:11;;;;;;;69.28;23.15;;;;;;;-5.66;100.00;98458.91;4385753;32;20052;-73
2022/01/10 04:41:40;;;;;;;65.97;24.00;;;;;;;-5.70;100.00;98452.31;4384148;32;20043;-73
2022/01/10 04:44:09;;;;;;;70.18;22.62;;;;;;;-5.51;100.00;98496.62;4384390;32;20038;-74
2022/01/10 04:46:35;;;;;;;69.85;25.00;;;;;;;-5.80;100.00;98454.28;4383398;32;20077;-73
2022/01/10 04:49:04;;;;;;;60.33;23.80;;;;;;;-5.55;100.00;98510.22;4385141;32;20089;-73
2022/01/10 04:51:32;;;;;;;63.08;23.83;;;;;;;-5.71;100.00;98492.63;4371989;32;20038;-73
2022/01/10 04:53:58;;;;;;;60.95;24.35;;;;;;;-5.80;100.00;98490.97;4386231;32;20072;-75
2022/01/10 04:56:26;;;;;;;58.30;20.48;;;;;;;-5.51;100.00;98543.84;4381509;32;20039;-74
2022/01/10 04:58:53;;;;;;;50.22;18.15;;;;;;;-5.81;100.00;98497.19;4383065;32;20063;-74
2022/01/10 05:01:20;;;;;;;49.72;20.25;;;;;;;-5.56;100.00;98543.53;4385362;32;20427;-73
2022/01/10 05:03:47;;;;;;;55.12;20.52;;;;;;;-5.56;100.00;98533.03;4385216;32;20084;-74
2022/01/10 05:06:14;;;;;;;55.55;19.75;;;;;;;-5.62;100.00;98527.59;4371944;32;20047;-81
2022/01/10 05:08:41;;;;;;;52.00;19.27;;;;;;;-5.79;100.00;98500.47;4371043;32;20032;-74
2022/01/10 05:11:10;;;;;;;59.65;19.30;;;;;;;-5.53;100.00;98551.06;4386081;32;20050;-73
2022/01/10 05:13:37;;;;;;;67.03;22.45;;;;;;;-5.52;100.00;98555.34;4386121;32;20057;-74
2022/01/10 05:16:04;;;;;;;54.22;21.27;;;;;;;-5.77;100.00;98509.84;4385521;32;20078;-74
2022/01/10 05:18:31;;;;;;;54.55;19.27;;;;;;;-5.59;100.00;98548.28;4385824;32;20073;-79
2022/01/10 05:20:57;;;;;;;51.50;20.10;;;;;;;-5.56;100.00;98564.50;4371654;32;20208;-73
2022/01/10 05:23:24;;;;;;;67.55;22.10;;;;;;;-5.84;100.00;98530.63;4371340;32;20096;-74
2022/01/10 05:25:51;;;;;;;68.45;22.05;;;;;;;-5.58;100.00;98576.16;4373285;32;20051;-73
2022/01/10 05:28:17;;;;;;;57.28;19.05;;;;;;;-5.65;100.00;98581.19;4387780;32;20031;-73
2022/01/10 05:30:45;;;;;;;54.58;21.52;;;;;;;-6.04;100.00;98529.25;4382995;32;20069;-80
2022/01/10 05:33:13;;;;;;;72.37;21.95;;;;;;;-5.74;100.00;98598.69;4385199;32;21052;-73
2022/01/10 05:35:41;;;;;;;65.28;22.50;;;;;;;-5.86;100.00;98578.94;4385570;32;20357;-73
2022/01/10 05:38:08;;;;;;;71.57;22.23;;;;;;;-5.80;100.00;98601.94;4384333;32;20039;-73
2022/01/10 05:40:35;;;;;;;72.82;24.27;;;;;;;-5.86;100.00;98600.75;4383038;32;20043;-74
2022/01/10 05:43:02;;;;;;;61.17;21.70;;;;;;;-5.96;100.00;98605.28;4383031;32;20058;-74
2022/01/10 05:45:29;;;;;;;72.87;23.98;;;;;;;-5.95;100.00;98617.44;4385170;32;20477;-74
2022/01/10 05:47:56;;;;;;;57.72;21.30;;;;;;;-6.02;100.00;98611.97;4384417;32;20069;-74
2022/01/10 05:50:33;;;;;;;58.47;19.83;;;;;;;-6.11;100.00;98609.47;4378062;32;20120;-74
2022/01/10 05:53:02;;;;;;;68.45;21.17;;;;;;;-6.32;100.00;98594.91;4369783;32;20050;-73
2022/01/10 05:55:28;;;;;;;69.47;20.62;;;;;;;-6.16;100.00;98635.31;4385074;32;20077;-73
2022/01/10 05:57:55;;;;;;;64.87;20.90;;;;;;;-6.18;100.00;98634.66;4385153;32;20035;-74
2022/01/10 06:00:23;;;;;;;65.62;23.17;;;;;;;-6.51;100.00;98595.06;4371595;32;20082;-73
2022/01/10 06:02:50;;;;;;;84.45;23.58;;;;;;;-6.34;100.00;98628.28;4386716;32;20042;-74
2022/01/10 06:05:19;;;;;;;81.87;26.00;;;;;;;-6.28;100.00;98635.56;4386502;32;20065;-75
2022/01/10 06:07:47;;;;;;;66.28;21.83;;;;;;;-6.27;100.00;98650.31;4387327;32;20082;-74
2022/01/10 06:10:14;;;;;;;71.87;23.62;;;;;;;-6.29;100.00;98649.63;4378740;32;20069;-73
2022/01/10 06:12:41;;;;;;;74.12;21.62;;;;;;;-6.27;100.00;98660.81;4361706;32;20031;-76
2022/01/10 06:15:08;;;;;;;58.63;21.25;;;;;;;-6.29;100.00;98660.09;4382157;32;20114;-78
2022/01/10 06:17:37;;;;;;;57.85;19.60;;;;;;;-6.49;100.00;98629.78;4378426;32;20827;-74
2022/01/10 06:20:05;;;;;;;72.95;22.48;;;;;;;-6.29;100.00;98672.41;4383821;32;20031;-77
2022/01/10 06:22:33;;;;;;;62.05;20.05;;;;;;;-6.34;100.00;98678.09;4387425;32;20448;-75
2022/01/10 06:25:00;;;;;;;77.30;23.77;;;;;;;-6.63;100.00;98637.22;4387702;32;20072;-74
2022/01/10 06:27:27;;;;;;;72.40;23.00;;;;;;;-6.55;100.00;98646.13;4384428;32;20043;-80
2022/01/10 06:29:54;;;;;;;74.60;22.80;;;;;;;-6.53;100.00;98659.91;4380035;32;20107;-74
2022/01/10 06:32:21;;;;;;;72.90;20.90;;;;;;;-6.22;100.00;98710.12;4380848;32;20042;-74
2022/01/10 06:34:49;;;;;;;71.65;23.30;;;;;;;-6.17;100.00;98707.03;4378661;32;20035;-74
2022/01/10 06:37:16;;;;;;;71.53;20.67;;;;;;;-6.13;100.00;98721.50;4381386;32;20051;-74
2022/01/10 06:39:43;;;;;;;73.68;21.70;;;;;;;-6.11;100.00;98722.16;4375371;32;20116;-78
2022/01/10 06:42:11;;;;;;;58.35;18.70;;;;;;;-6.05;100.00;98737.31;4383482;32;20088;-74
2022/01/10 06:44:38;;;;;;;63.13;17.87;;;;;;;-6.04;100.00;98737.16;4378637;32;20091;-75
2022/01/10 06:47:05;;;;;;;66.78;21.87;;;;;;;-6.00;100.00;98750.78;4377887;32;20406;-74
2022/01/10 06:49:39;;;;;;;51.35;17.33;;;;;;;-5.98;100.00;98759.34;4385474;32;20192;-82
2022/01/10 06:52:06;;;;;;;61.30;17.20;;;;;;;-6.00;100.00;98765.69;4385924;32;20067;-75
2022/01/10 06:54:34;;;;;;;74.40;23.17;;;;;;;-6.22;100.00;98729.31;4381389;32;20483;-77
2022/01/10 06:57:02;;;;;;;72.47;21.92;;;;;;;-6.20;100.00;98734.41;4378291;32;20076;-75
2022/01/10 06:59:29;;;;;;;72.18;19.40;;;;;;;-6.09;100.00;98741.22;4376085;32;20081;-76
2022/01/10 07:01:57;;;;;;;71.57;20.75;;;;;;;-6.11;100.00;98744.00;4367009;32;20044;-77
2022/01/10 07:04:25;;;;;;;58.20;18.52;;;;;;;-5.85;100.00;98775.47;4369321;32;20404;-77
2022/01/10 07:06:52;;;;;;;71.30;20.17;;;;;;;-5.66;100.00;98794.66;4356911;32;20547;-76
2022/01/10 07:09:19;;;;;;;57.42;19.02;;;;;;;-5.77;100.00;98793.06;4370761;32;20067;-79
2022/01/10 07:11:47;;;;;;;57.20;18.12;;;;;;;-5.98;100.00;98748.84;4368826;32;20073;-81
2022/01/10 07:14:16;;;;;;;56.72;17.27;;;;;;;-5.89;100.00;98771.53;4368280;32;20079;-75
2022/01/10 07:16:44;;;;;;;59.42;17.15;;;;;;;-5.64;100.00;98821.56;4369565;32;20043;-77
2022/01/10 07:19:12;;;;;;;66.57;17.10;;;;;;;-5.81;100.00;98780.41;4358819;32;20065;-77
2022/01/10 07:21:39;;;;;;;60.22;16.87;;;;;;;-5.53;100.00;98821.31;4386845;32;20108;-75
2022/01/10 07:24:07;;;;;;;68.35;16.85;;;;;;;-5.48;100.00;98829.53;4385664;32;20068;-79
2022/01/10 07:26:34;;;;;;;60.75;19.25;;;;;;;-5.49;100.00;98833.16;4385543;32;20071;-75
2022/01/10 07:29:03;;;;;;;71.82;19.85;;;;;;;-5.35;100.00;98841.47;4384984;32;20384;-74
2022/01/10 07:31:30;;;;;;;65.60;18.17;;;;;;;-5.32;100.00;98849.03;4372219;32;20177;-75
2022/01/10 07:33:57;;;;;;;70.15;16.40;;;;;;;-5.40;100.00;98841.91;4386220;32;20040;-75
2022/01/10 07:36:24;;;;;;;66.70;19.90;;;;;;;-5.24;100.00;98875.34;4383608;32;20101;-75
2022/01/10 07:38:50;;;;;;;57.58;17.55;;;;;;;-5.24;100.00;98877.97;4386918;32;20799;-75
2022/01/10 07:41:18;;;;;;;58.72;16.77;;;;;;;-5.24;100.00;98859.59;4385756;32;20061;-76
2022/01/10 07:43:44;;;;;;;56.85;18.40;;;;;;;-5.20;100.00;98873.22;4386883;32;20088;-76
2022/01/10 07:46:11;;;;;;;55.75;20.15;;;;;;;-5.43;100.00;98857.16;4371848;32;20418;-80
2022/01/10 07:48:40;;;;;;;63.35;18.95;;;;;;;-5.12;100.00;98900.38;4384931;32;20055;-74
2022/01/10 07:51:09;;;;;;;63.85;18.42;;;;;;;-5.00;100.00;98905.38;4388098;32;20039;-74
2022/01/10 07:53:37;;;;;;;62.65;19.83;;;;;;;-4.96;100.00;98919.88;4385826;32;20474;-75
2022/01/10 07:56:04;;;;;;;61.13;18.27;;;;;;;-5.04;100.00;98909.28;4372035;32;20082;-80
2022/01/10 07:58:31;;;;;;;63.53;19.77;;;;;;;-4.94;100.00;98899.53;4386073;32;20760;-75
2022/01/10 08:00:58;;;;;;;56.50;18.08;;;;;;;-4.78;100.00;98928.53;4384125;32;20047;-75
2022/01/10 08:03:26;;;;;;;55.78;16.62;;;;;;;-4.71;100.00;98927.91;4369378;32;20385;-78
2022/01/10 08:05:52;;;;;;;55.25;17.67;;;;;;;-4.83;100.00;98912.41;4366739;32;20044;-78
2022/01/10 08:08:19;;;;;;;53.75;16.50;;;;;;;-4.65;100.00;98943.06;4367360;32;20089;-76
2022/01/10 08:10:46;;;;;;;49.95;16.85;;;;;;;-4.61;100.00;98936.50;4369065;32;20058;-75
2022/01/10 08:13:12;;;;;;;48.67;15.80;;;;;;;-4.57;100.00;98937.88;4369310;32;20068;-75
2022/01/10 08:15:39;;;;;;;48.65;16.95;;;;;;;-4.54;100.00;98934.94;4368757;32;20432;-76
2022/01/10 08:18:07;;;;;;;48.40;15.80;;;;;;;-4.65;100.00;98916.78;4367100;32;20483;-80
2022/01/10 08:20:33;;;;;;;50.75;16.67;;;;;;;-4.55;100.00;98946.41;4370859;32;20094;-73
2022/01/10 08:23:00;;;;;;;45.10;14.27;;;;;;;-4.89;100.00;98897.25;4370583;32;20065;-73
2022/01/10 08:25:27;;;;;;;51.45;16.85;;;;;;;-5.72;100.00;98748.03;4369158;32;20649;-75
2022/01/10 08:27:53;;;;;;;44.75;15.40;;;;;;;-4.41;100.00;98953.72;4372501;32;20083;-74
2022/01/10 08:30:20;;;;;;;30.33;9.85;;;;;;;-4.58;100.00;98949.34;4384808;32;20433;-79
2022/01/10 08:32:50;;;;;;;50.60;13.23;;;;;;;-4.65;100.00;98956.22;4371915;32;20065;-75
2022/01/10 08:35:18;;;;;;;38.22;14.50;;;;;;;-4.58;100.00;98962.47;4371440;32;20364;-74
2022/01/10 08:37:45;;;;;;;42.20;13.18;;;;;;;-4.54;100.00;98976.97;4385778;32;20073;-74
2022/01/10 08:40:14;;;;;;;42.70;14.85;;;;;;;-4.67;100.00;98947.66;4385404;32;20039;-79
2022/01/10 08:42:40;;;;;;;35.05;13.05;;;;;;;-4.85;100.00;98951.16;4381229;32;20061;-74
2022/01/10 08:45:08;;;;;;;38.53;15.45;;;;;;;-4.83;100.00;98954.44;4374459;32;20141;-75
2022/01/10 08:47:36;;;;;;;38.05;12.90;;;;;;;-4.60;100.00;99002.06;4370123;32;20052;-75
2022/01/10 08:50:05;;;;;;;39.55;13.88;;;;;;;-4.57;100.00;99007.00;4383318;32;20062;-75
2022/01/10 08:52:31;;;;;;;38.17;14.05;;;;;;;-4.82;100.00;98979.75;4384630;32;20035;-85
2022/01/10 08:54:59;;;;;;;36.05;13.20;;;;;;;-4.80;100.00;98977.78;4384212;32;20081;-74
2022/01/10 08:57:26;;;;;;;42.67;16.23;;;;;;;-4.69;100.00;99007.41;4384475;32;20088;-75
2022/01/10 08:59:52;;;;;;;44.58;14.38;;;;;;;-4.78;100.00;98981.06;4370872;32;20039;-75
2022/01/10 09:02:19;;;;;;;42.33;15.90;;;;;;;-4.41;100.00;99032.59;4374296;32;20056;-74
2022/01/10 09:04:46;;;;;;;41.75;14.18;;;;;;;-4.62;100.00;98995.31;4380030;32;20044;-84
2022/01/10 09:07:13;;;;;;;39.35;14.20;;;;;;;-4.28;100.00;99041.88;4379580;32;20316;-81
2022/01/10 09:09:40;;;;;;;41.17;15.93;;;;;;;-4.29;100.00;99041.06;4383372;32;20084;-77
2022/01/10 09:12:07;;;;;;;50.50;14.70;;;;;;;-4.32;100.00;99051.88;4382382;32;20043;-75
2022/01/10 09:14:34;;;;;;;52.97;16.33;;;;;;;-4.30;100.00;99049.09;4377860;32;20451;-79
2022/01/10 09:17:00;;;;;;;45.05;17.10;;;;;;;-4.47;100.00;99006.91;4384242;32;20072;-76
2022/01/10 09:19:27;;;;;;;49.40;16.77;;;;;;;-4.25;100.00;99038.94;4385738;32;20077;-76
2022/01/10 09:21:53;;;;;;;43.87;15.85;;;;;;;-4.22;100.00;99036.00;4385397;32;20104;-76
2022/01/10 09:24:21;;;;;;;39.20;15.52;;;;;;;-4.05;100.00;99060.62;4377691;32;20069;-75
2022/01/10 09:26:47;;;;;;;50.58;16.95;;;;;;;-4.06;100.00;99066.84;4363891;32;20069;-76
2022/01/10 09:29:14;;;;;;;36.38;15.38;;;;;;;-4.26;100.00;99009.19;4363321;32;20480;-75
2022/01/10 09:31:41;;;;;;;61.08;21.02;;;;;;;-4.21;100.00;99021.88;4362791;32;20343;-74
2022/01/10 09:34:07;;;;;;;51.60;17.92;;;;;;;-3.99;100.00;99056.53;4365637;32;20047;-76
2022/01/10 09:36:34;;;;;;;39.35;14.35;;;;;;;-4.21;100.00;99029.78;4375430;32;20069;-74
2022/01/10 09:39:02;;;;;;;42.72;14.20;;;;;;;-3.95;100.00;99068.41;4377256;32;20047;-75
2022/01/10 09:41:29;;;;;;;39.00;13.32;;;;;;;-4.10;100.00;99062.84;4373935;32;20171;-75
2022/01/10 09:44:02;;;;;;;41.45;15.35;;;;;;;-4.21;100.00;99037.66;4380076;32;20052;-75
2022/01/10 09:46:30;;;;;;;41.15;15.65;;;;;;;-4.09;100.00;99062.69;4377415;32;20081;-77
2022/01/10 09:49:01;;;;;;;47.65;13.18;;;;;;;-4.03;100.00;99087.56;4376706;32;20051;-84
2022/01/10 09:51:29;;;;;;;37.80;13.32;;;;;;;-4.08;100.00;99090.66;4378661;32;20051;-80
2022/01/10 09:53:59;;;;;;;39.80;13.82;;;;;;;-4.09;100.00;99089.00;4369861;32;20369;-77
2022/01/10 09:56:27;;;;;;;42.20;15.52;;;;;;;-4.03;100.00;99103.34;4378687;32;20419;-75
2022/01/10 09:58:54;;;;;;;42.25;13.32;;;;;;;-4.03;100.00;99109.44;4380563;32;20086;-80
2022/01/10 10:01:21;;;;;;;34.60;14.65;;;;;;;-4.03;100.00;99109.44;4378744;32;20053;-76
2022/01/10 10:03:50;;;;;;;40.65;14.80;;;;;;;-4.02;100.00;99108.47;4379109;32;20047;-79
2022/01/10 10:06:17;;;;;;;39.05;16.33;;;;;;;-4.22;100.00;99075.44;4378718;32;20371;-78
2022/01/10 10:08:45;;;;;;;44.22;17.02;;;;;;;-3.96;100.00;99129.88;4371869;32;20061;-76
2022/01/10 10:11:12;;;;;;;32.55;13.77;;;;;;;-3.94;100.00;99139.28;4379235;32;20035;-76
2022/01/10 10:13:56;;;;;;;41.75;15.70;;;;;;;-3.96;100.00;99145.66;4381335;32;20059;-75
2022/01/10 10:16:26;;;;;;;48.13;16.10;;;;;;;-4.14;100.00;99127.28;4379404;32;20074;-75
2022/01/10 10:18:52;;;;;;;47.20;16.17;;;;;;;-4.27;100.00;99114.53;4378466;32;20061;-82
2022/01/10 10:21:20;;;;;;;35.28;13.85;;;;;;;-3.87;100.00;99150.00;4372733;32;20031;-76
2022/01/10 10:23:49;;;;;;;35.08;13.45;;;;;;;-3.76;100.00;99165.53;4379764;32;20485;-77
2022/01/10 10:26:23;;;;;;;39.90;13.50;;;;;;;-3.77;100.00;99174.38;4375672;32;20070;-76
2022/01/10 10:28:52;;;;;;;37.67;14.20;;;;;;;-3.75;100.00;99185.63;4378742;32;20131;-76
2022/01/10 10:31:44;;;;;;;41.53;13.68;;;;;;;-3.83;100.00;99164.47;4366426;32;20055;-76
2022/01/10 10:34:17;;;;;;;38.95;13.93;;;;;;;-3.78;100.00;99177.19;4377834;32;20043;-76
2022/01/10 10:36:43;;;;;;;36.85;13.98;;;;;;;-4.06;100.00;99125.53;4378913;32;20156;-77
2022/01/10 10:39:10;;;;;;;41.37;14.63;;;;;;;-3.66;100.00;99189.94;4362412;32;20073;-75
2022/01/10 10:41:38;;;;;;;22.13;11.12;;;;;;;-3.90;100.00;99139.78;4358394;32;20078;-75
2022/01/10 10:44:05;;;;;;;37.92;12.55;;;;;;;-3.94;100.00;99139.28;4371916;32;20424;-75
2022/01/10 10:46:32;;;;;;;31.00;11.98;;;;;;;-3.97;100.00;99150.09;4364466;32;20044;-82
2022/01/10 10:49:10;;;;;;;36.72;12.10;;;;;;;-3.84;100.00;99176.00;4354603;32;20068;-75
2022/01/10 10:51:37;;;;;;;33.63;14.07;;;;;;;-3.82;100.00;99200.34;4357371;32;20073;-75
2022/01/10 10:54:06;;;;;;;42.17;13.93;;;;;;;-4.05;100.00;99157.94;4367639;32;20090;-75
2022/01/10 10:56:39;;;;;;;28.15;11.68;;;;;;;-3.97;100.00;99165.03;4371866;32;20462;-76
2022/01/10 10:59:07;;;;;;;32.83;13.00;;;;;;;-3.94;100.00;99159.47;4358683;32;20073;-76
2022/01/10 11:01:38;;;;;;;29.35;11.85;;;;;;;-3.81;100.00;99202.00;4372530;32;20361;-76
2022/01/10 11:04:09;;;;;;;34.97;12.82;;;;;;;-3.71;100.00;99202.72;4357903;32;20444;-74
2022/01/10 11:06:37;;;;;;;41.58;13.43;;;;;;;-3.72;100.00;99201.09;4371998;32;20040;-75
2022/01/10 11:09:06;;;;;;;39.17;15.98;;;;;;;-3.90;100.00;99187.13;4370044;32;20132;-74
2022/01/10 11:11:33;;;;;;;41.88;15.00;;;;;;;-3.60;100.00;99224.53;4358394;32;20047;-74
2022/01/10 11:14:01;;;;;;;43.05;15.38;;;;;;;-4.12;100.00;99136.66;4371846;32;20357;-75
2022/01/10 11:16:29;;;;;;;47.20;16.30;;;;;;;-3.62;100.00;99227.31;4356652;32;20035;-74
2022/01/10 11:18:55;;;;;;;39.55;16.37;;;;;;;-3.76;100.00;99218.16;4377024;32;20061;-79
2022/01/10 11:21:23;;;;;;;47.38;16.23;;;;;;;-3.93;100.00;99187.44;4385012;32;20069;-76